sensor_id;sensor_type;location;lat;lon;timestamp;pressure;altitude;pressure_sealevel;temperature;humidity
23176;BME280;19910;42.652;23.332;2023-03-24T00:00:20;94736.91;;;5.74;93.24
23176;BME280;19910;42.652;23.332;2023-03-24T00:02:48;94741.09;;;5.80;93.26
23176;BME280;19910;42.652;23.332;2023-03-24T00:05:17;94733.72;;;5.71;93.21
23176;BME280;19910;42.652;23.332;2023-03-24T00:07:44;94734.78;;;5.70;93.27
23176;BME280;19910;42.652;23.332;2023-03-24T00:10:16;94724.69;;;5.62;93.43
23176;BME280;19910;42.652;23.332;2023-03-24T00:12:43;94736.41;;;5.71;93.57
23176;BME280;19910;42.652;23.332;2023-03-24T00:15:13;94729.81;;;5.78;93.70
23176;BME280;19910;42.652;23.332;2023-03-24T00:17:40;94729.75;;;5.83;93.29
23176;BME280;19910;42.652;23.332;2023-03-24T00:20:08;94731.13;;;5.80;92.81
23176;BME280;19910;42.652;23.332;2023-03-24T00:22:39;94741.09;;;5.80;92.05
23176;BME280;19910;42.652;23.332;2023-03-24T00:25:07;94744.47;;;5.71;92.46
23176;BME280;19910;42.652;23.332;2023-03-24T00:27:36;94753.78;;;5.74;91.96
23176;BME280;19910;42.652;23.332;2023-03-24T00:30:04;94748.31;;;5.65;92.05
23176;BME280;19910;42.652;23.332;2023-03-24T00:32:32;94741.03;;;5.66;92.62
23176;BME280;19910;42.652;23.332;2023-03-24T00:35:01;94744.81;;;5.65;93.18
23176;BME280;19910;42.652;23.332;2023-03-24T00:37:28;94740.63;;;5.59;93.23
23176;BME280;19910;42.652;23.332;2023-03-24T00:39:55;94743.09;;;5.55;93.53
23176;BME280;19910;42.652;23.332;2023-03-24T00:42:22;94740.41;;;5.55;93.44
23176;BME280;19910;42.652;23.332;2023-03-24T00:44:52;94737.72;;;5.55;93.92
23176;BME280;19910;42.652;23.332;2023-03-24T00:47:19;94733.06;;;5.61;93.65
23176;BME280;19910;42.652;23.332;2023-03-24T00:49:50;94729.66;;;5.55;93.44
23176;BME280;19910;42.652;23.332;2023-03-24T00:52:20;94724.06;;;5.52;93.90
23176;BME280;19910;42.652;23.332;2023-03-24T00:54:50;94718.28;;;5.45;94.14
23176;BME280;19910;42.652;23.332;2023-03-24T00:57:20;94726.25;;;5.50;95.01
23176;BME280;19910;42.652;23.332;2023-03-24T00:59:47;94721.50;;;5.60;95.39
23176;BME280;19910;42.652;23.332;2023-03-24T01:02:16;94725.50;;;5.63;95.26
23176;BME280;19910;42.652;23.332;2023-03-24T01:04:47;94720.41;;;5.61;95.23
23176;BME280;19910;42.652;23.332;2023-03-24T01:07:14;94723.53;;;5.68;95.12
23176;BME280;19910;42.652;23.332;2023-03-24T01:09:43;94721.44;;;5.65;95.14
23176;BME280;19910;42.652;23.332;2023-03-24T01:12:16;94715.66;;;5.58;94.78
23176;BME280;19910;42.652;23.332;2023-03-24T01:14:43;94724.69;;;5.62;94.97
23176;BME280;19910;42.652;23.332;2023-03-24T01:17:10;94728.59;;;5.56;95.00
23176;BME280;19910;42.652;23.332;2023-03-24T01:19:39;94721.91;;;5.54;95.28
23176;BME280;19910;42.652;23.332;2023-03-24T01:22:07;94724.19;;;5.60;95.50
23176;BME280;19910;42.652;23.332;2023-03-24T01:24:34;94718.34;;;5.58;95.79
23176;BME280;19910;42.652;23.332;2023-03-24T01:27:01;94710.41;;;5.67;95.99
23176;BME280;19910;42.652;23.332;2023-03-24T01:29:28;94713.63;;;5.50;95.68
23176;BME280;19910;42.652;23.332;2023-03-24T01:31:55;94707.75;;;5.48;95.40
23176;BME280;19910;42.652;23.332;2023-03-24T01:34:22;94718.00;;;5.46;95.83
23176;BME280;19910;42.652;23.332;2023-03-24T01:36:51;94718.00;;;5.46;95.74
23176;BME280;19910;42.652;23.332;2023-03-24T01:39:17;94719.66;;;5.42;95.75
23176;BME280;19910;42.652;23.332;2023-03-24T01:41:45;94708.28;;;5.31;96.27
23176;BME280;19910;42.652;23.332;2023-03-24T01:44:27;94712.69;;;5.41;96.08
23176;BME280;19910;42.652;23.332;2023-03-24T01:46:55;94716.47;;;5.40;95.64
23176;BME280;19910;42.652;23.332;2023-03-24T01:49:25;94711.78;;;5.32;95.78
23176;BME280;19910;42.652;23.332;2023-03-24T01:51:57;94717.63;;;5.34;96.19
23176;BME280;19910;42.652;23.332;2023-03-24T01:54:29;94713.84;;;5.35;96.37
23176;BME280;19910;42.652;23.332;2023-03-24T01:57:01;94719.22;;;5.35;96.28
23176;BME280;19910;42.652;23.332;2023-03-24T01:59:31;94720.41;;;5.29;96.30
23176;BME280;19910;42.652;23.332;2023-03-24T02:01:59;94719.38;;;5.25;96.50
23176;BME280;19910;42.652;23.332;2023-03-24T02:04:29;94729.56;;;5.28;95.95
23176;BME280;19910;42.652;23.332;2023-03-24T02:07:05;94723.75;;;5.21;96.34
23176;BME280;19910;42.652;23.332;2023-03-24T02:09:33;94730.28;;;5.15;96.22
23176;BME280;19910;42.652;23.332;2023-03-24T02:12:01;94727.44;;;5.06;97.01
23176;BME280;19910;42.652;23.332;2023-03-24T02:14:28;94736.22;;;5.12;97.53
23176;BME280;19910;42.652;23.332;2023-03-24T02:17:20;94731.66;;;5.12;96.87
23176;BME280;19910;42.652;23.332;2023-03-24T02:20:09;94732.69;;;5.16;97.22
23176;BME280;19910;42.652;23.332;2023-03-24T02:23:23;94733.47;;;5.17;97.44
23176;BME280;19910;42.652;23.332;2023-03-24T02:26:33;94729.34;;;5.06;98.25
23176;BME280;19910;42.652;23.332;2023-03-24T02:32:15;94730.28;;;5.15;98.25
23176;BME280;19910;42.652;23.332;2023-03-24T02:35:13;94728.13;;;5.17;98.32
23176;BME280;19910;42.652;23.332;2023-03-24T02:38:07;94732.47;;;5.13;98.11
23176;BME280;19910;42.652;23.332;2023-03-24T02:40:41;94729.84;;;5.08;98.03
23176;BME280;19910;42.652;23.332;2023-03-24T02:43:28;94713.53;;;5.04;98.83
23176;BME280;19910;42.652;23.332;2023-03-24T02:46:07;94715.78;;;5.16;98.57
23176;BME280;19910;42.652;23.332;2023-03-24T02:48:44;94720.41;;;5.29;97.24
23176;BME280;19910;42.652;23.332;2023-03-24T02:51:16;94701.69;;;5.24;97.19
23176;BME280;19910;42.652;23.332;2023-03-24T02:53:52;94695.16;;;5.30;97.31
23176;BME280;19910;42.652;23.332;2023-03-24T02:56:25;94699.38;;;5.50;96.15
23176;BME280;19910;42.652;23.332;2023-03-24T02:58:58;94695.78;;;5.41;96.16
23176;BME280;19910;42.652;23.332;2023-03-24T03:01:30;94696.66;;;5.36;97.05
23176;BME280;19910;42.652;23.332;2023-03-24T03:04:02;94693.47;;;5.34;97.65
23176;BME280;19910;42.652;23.332;2023-03-24T03:06:33;94689.19;;;5.33;98.22
23176;BME280;19910;42.652;23.332;2023-03-24T03:09:05;94687.22;;;5.39;98.83
23176;BME280;19910;42.652;23.332;2023-03-24T03:11:35;94684.81;;;5.37;98.75
23176;BME280;19910;42.652;23.332;2023-03-24T03:14:05;94681.84;;;5.39;98.46
23176;BME280;19910;42.652;23.332;2023-03-24T03:16:36;94694.41;;;5.43;98.30
23176;BME280;19910;42.652;23.332;2023-03-24T03:19:10;94691.56;;;5.34;98.27
23176;BME280;19910;42.652;23.332;2023-03-24T03:21:38;94696.66;;;5.36;98.27
23176;BME280;19910;42.652;23.332;2023-03-24T03:24:10;94694.06;;;5.31;98.13
23176;BME280;19910;42.652;23.332;2023-03-24T03:26:41;94699.78;;;5.43;98.24
23176;BME280;19910;42.652;23.332;2023-03-24T03:29:14;94697.16;;;5.38;98.23
23176;BME280;19910;42.652;23.332;2023-03-24T03:31:46;94699.19;;;5.46;97.83
23176;BME280;19910;42.652;23.332;2023-03-24T03:34:21;94694.22;;;5.53;96.73
23176;BME280;19910;42.652;23.332;2023-03-24T03:36:57;94688.75;;;5.45;96.71
23176;BME280;19910;42.652;23.332;2023-03-24T03:39:28;94675.03;;;5.46;96.44
23176;BME280;19910;42.652;23.332;2023-03-24T03:41:58;94674.50;;;5.44;96.90
23176;BME280;19910;42.652;23.332;2023-03-24T03:44:25;94681.84;;;5.39;96.22
23176;BME280;19910;42.652;23.332;2023-03-24T03:46:52;94682.25;;;5.32;96.57
23176;BME280;19910;42.652;23.332;2023-03-24T03:49:19;94686.81;;;5.31;96.01
23176;BME280;19910;42.652;23.332;2023-03-24T03:51:46;94696.13;;;5.34;96.52
23176;BME280;19910;42.652;23.332;2023-03-24T03:54:15;94692.31;;;5.21;96.46
23176;BME280;19910;42.652;23.332;2023-03-24T03:56:42;94696.88;;;5.21;96.26
23176;BME280;19910;42.652;23.332;2023-03-24T03:59:24;94702.56;;;5.00;96.41
23176;BME280;19910;42.652;23.332;2023-03-24T04:01:51;94692.09;;;4.80;96.48
23176;BME280;19910;42.652;23.332;2023-03-24T04:04:38;94708.94;;;4.86;97.68
23176;BME280;19910;42.652;23.332;2023-03-24T04:07:11;94709.53;;;5.02;97.75
23176;BME280;19910;42.652;23.332;2023-03-24T04:09:49;94713.72;;;5.26;96.51
23176;BME280;19910;42.652;23.332;2023-03-24T04:12:29;94704.94;;;5.21;95.91
23176;BME280;19910;42.652;23.332;2023-03-24T04:15:22;94710.75;;;5.09;95.95
23176;BME280;19910;42.652;23.332;2023-03-24T04:18:05;94713.16;;;5.11;96.14
23176;BME280;19910;42.652;23.332;2023-03-24T04:20:41;94713.16;;;5.11;95.28
23176;BME280;19910;42.652;23.332;2023-03-24T04:23:19;94712.94;;;5.07;94.81
23176;BME280;19910;42.652;23.332;2023-03-24T04:26:00;94713.88;;;4.97;95.04
23176;BME280;19910;42.652;23.332;2023-03-24T04:28:34;94711.56;;;5.10;95.83
23176;BME280;19910;42.652;23.332;2023-03-24T04:31:11;94706.75;;;5.07;96.05
23176;BME280;19910;42.652;23.332;2023-03-24T04:33:46;94705.09;;;5.11;96.59
23176;BME280;19910;42.652;23.332;2023-03-24T04:36:20;94695.38;;;5.15;96.38
23176;BME280;19910;42.652;23.332;2023-03-24T04:38:52;94704.59;;;5.27;96.13
23176;BME280;19910;42.652;23.332;2023-03-24T04:41:23;94714.19;;;5.47;95.40
23176;BME280;19910;42.652;23.332;2023-03-24T04:43:53;94720.38;;;5.99;95.93
23176;BME280;19910;42.652;23.332;2023-03-24T04:46:23;94704.50;;;6.93;93.52
23176;BME280;19910;42.652;23.332;2023-03-24T04:48:50;94711.06;;;7.81;87.82
23176;BME280;19910;42.652;23.332;2023-03-24T04:51:18;94705.47;;;8.71;83.15
23176;BME280;19910;42.652;23.332;2023-03-24T04:53:46;94721.00;;;9.48;78.35
23176;BME280;19910;42.652;23.332;2023-03-24T04:56:27;94719.34;;;10.16;74.68
23176;BME280;19910;42.652;23.332;2023-03-24T04:58:54;94706.47;;;10.21;73.35
23176;BME280;19910;42.652;23.332;2023-03-24T05:01:24;94718.56;;;10.24;74.44
23176;BME280;19910;42.652;23.332;2023-03-24T05:03:55;94723.22;;;10.53;73.94
23176;BME280;19910;42.652;23.332;2023-03-24T05:06:22;94704.50;;;11.27;70.70
23176;BME280;19910;42.652;23.332;2023-03-24T05:08:49;94711.78;;;11.56;70.06
23176;BME280;19910;42.652;23.332;2023-03-24T05:11:17;94707.97;;;11.78;68.95
23176;BME280;19910;42.652;23.332;2023-03-24T05:13:44;94706.72;;;12.08;66.24
23176;BME280;19910;42.652;23.332;2023-03-24T05:16:11;94714.56;;;12.79;65.05
23176;BME280;19910;42.652;23.332;2023-03-24T05:18:40;94715.44;;;12.71;66.08
23176;BME280;19910;42.652;23.332;2023-03-24T05:21:07;94710.44;;;13.46;62.94
23176;BME280;19910;42.652;23.332;2023-03-24T05:23:33;94719.69;;;14.26;60.32
23176;BME280;19910;42.652;23.332;2023-03-24T05:26:00;94711.59;;;14.13;60.44
23176;BME280;19910;42.652;23.332;2023-03-24T05:28:27;94724.06;;;14.14;60.46
23176;BME280;19910;42.652;23.332;2023-03-24T05:30:54;94715.31;;;14.37;59.37
23176;BME280;19910;42.652;23.332;2023-03-24T05:33:21;94715.56;;;14.44;59.37
23176;BME280;19910;42.652;23.332;2023-03-24T05:35:49;94720.84;;;15.00;57.77
23176;BME280;19910;42.652;23.332;2023-03-24T05:38:15;94708.56;;;15.76;55.25
23176;BME280;19910;42.652;23.332;2023-03-24T05:40:42;94707.34;;;15.92;53.51
23176;BME280;19910;42.652;23.332;2023-03-24T05:43:09;94705.94;;;16.41;51.98
23176;BME280;19910;42.652;23.332;2023-03-24T05:45:37;94708.06;;;16.70;51.33
23176;BME280;19910;42.652;23.332;2023-03-24T05:48:04;94699.63;;;17.28;49.81
23176;BME280;19910;42.652;23.332;2023-03-24T05:50:31;94698.84;;;17.27;49.09
23176;BME280;19910;42.652;23.332;2023-03-24T05:52:59;94704.06;;;17.89;47.29
23176;BME280;19910;42.652;23.332;2023-03-24T05:55:26;94697.72;;;18.15;46.93
23176;BME280;19910;42.652;23.332;2023-03-24T05:57:53;94689.25;;;18.64;45.69
23176;BME280;19910;42.652;23.332;2023-03-24T06:00:20;94683.69;;;18.97;44.76
23176;BME280;19910;42.652;23.332;2023-03-24T06:02:47;94699.16;;;18.72;44.67
23176;BME280;19910;42.652;23.332;2023-03-24T06:05:14;94700.53;;;18.55;45.12
23176;BME280;19910;42.652;23.332;2023-03-24T06:07:41;94713.72;;;18.42;45.53
23176;BME280;19910;42.652;23.332;2023-03-24T06:10:12;94714.97;;;18.15;45.54
23176;BME280;19910;42.652;23.332;2023-03-24T06:12:42;94710.13;;;18.72;44.98
23176;BME280;19910;42.652;23.332;2023-03-24T06:15:10;94711.94;;;17.15;47.68
23176;BME280;19910;42.652;23.332;2023-03-24T06:17:42;94710.59;;;17.28;47.73
23176;BME280;19910;42.652;23.332;2023-03-24T06:20:12;94716.34;;;16.54;49.90
23176;BME280;19910;42.652;23.332;2023-03-24T06:22:41;94708.22;;;16.77;49.63
23176;BME280;19910;42.652;23.332;2023-03-24T06:25:08;94710.34;;;17.63;48.59
23176;BME280;19910;42.652;23.332;2023-03-24T06:27:37;94707.88;;;18.81;46.00
23176;BME280;19910;42.652;23.332;2023-03-24T06:30:11;94712.94;;;18.45;46.25
23176;BME280;19910;42.652;23.332;2023-03-24T06:32:39;94703.19;;;19.87;43.90
23176;BME280;19910;42.652;23.332;2023-03-24T06:35:07;94706.34;;;19.97;43.32
23176;BME280;19910;42.652;23.332;2023-03-24T06:37:34;94703.44;;;19.68;43.65
23176;BME280;19910;42.652;23.332;2023-03-24T06:40:04;94704.13;;;20.27;42.51
23176;BME280;19910;42.652;23.332;2023-03-24T06:42:36;94714.41;;;18.36;45.06
23176;BME280;19910;42.652;23.332;2023-03-24T06:45:04;94719.00;;;18.58;45.44
23176;BME280;19910;42.652;23.332;2023-03-24T06:47:30;94722.75;;;19.28;44.04
23176;BME280;19910;42.652;23.332;2023-03-24T06:49:58;94721.78;;;18.62;44.91
23176;BME280;19910;42.652;23.332;2023-03-24T06:52:25;94723.25;;;17.89;46.26
23176;BME280;19910;42.652;23.332;2023-03-24T06:54:52;94721.84;;;18.35;45.72
23176;BME280;19910;42.652;23.332;2023-03-24T06:57:19;94716.13;;;18.14;46.29
23176;BME280;19910;42.652;23.332;2023-03-24T06:59:47;94714.34;;;19.06;44.63
23176;BME280;19910;42.652;23.332;2023-03-24T07:02:14;94711.63;;;19.54;44.55
23176;BME280;19910;42.652;23.332;2023-03-24T07:04:41;94725.34;;;19.06;43.94
23176;BME280;19910;42.652;23.332;2023-03-24T07:07:08;94723.72;;;18.98;43.95
23176;BME280;19910;42.652;23.332;2023-03-24T07:09:35;94720.59;;;17.43;46.69
23176;BME280;19910;42.652;23.332;2023-03-24T07:12:01;94738.91;;;15.90;50.60
23176;BME280;19910;42.652;23.332;2023-03-24T07:14:28;94740.53;;;15.56;52.47
23176;BME280;19910;42.652;23.332;2023-03-24T07:16:56;94752.25;;;15.09;53.55
23176;BME280;19910;42.652;23.332;2023-03-24T07:19:24;94739.03;;;16.55;50.67
23176;BME280;19910;42.652;23.332;2023-03-24T07:21:50;94743.53;;;16.05;51.67
23176;BME280;19910;42.652;23.332;2023-03-24T07:24:17;94750.53;;;15.87;51.91
23176;BME280;19910;42.652;23.332;2023-03-24T07:26:44;94743.59;;;16.09;51.94
23176;BME280;19910;42.652;23.332;2023-03-24T07:29:11;94740.66;;;16.37;50.51
23176;BME280;19910;42.652;23.332;2023-03-24T07:31:37;94736.84;;;16.22;50.69
23176;BME280;19910;42.652;23.332;2023-03-24T07:34:07;94752.34;;;14.81;54.33
23176;BME280;19910;42.652;23.332;2023-03-24T07:36:34;94745.88;;;15.52;53.17
23176;BME280;19910;42.652;23.332;2023-03-24T07:39:01;94743.72;;;16.16;52.36
23176;BME280;19910;42.652;23.332;2023-03-24T07:41:29;94738.91;;;16.48;51.34
23176;BME280;19910;42.652;23.332;2023-03-24T07:43:55;94736.88;;;15.87;51.81
23176;BME280;19910;42.652;23.332;2023-03-24T07:46:22;94736.06;;;16.21;51.88
23176;BME280;19910;42.652;23.332;2023-03-24T07:48:49;94728.25;;;16.43;51.47
23176;BME280;19910;42.652;23.332;2023-03-24T07:51:17;94725.75;;;16.53;51.52
23176;BME280;19910;42.652;23.332;2023-03-24T07:53:44;94732.88;;;16.19;51.25
23176;BME280;19910;42.652;23.332;2023-03-24T07:56:12;94730.25;;;16.46;51.49
23176;BME280;19910;42.652;23.332;2023-03-24T07:58:39;94738.94;;;15.39;53.85
23176;BME280;19910;42.652;23.332;2023-03-24T08:01:05;94723.59;;;15.50;53.23
23176;BME280;19910;42.652;23.332;2023-03-24T08:03:34;94723.81;;;15.26;53.76
23176;BME280;19910;42.652;23.332;2023-03-24T08:06:00;94729.81;;;15.16;54.10
23176;BME280;19910;42.652;23.332;2023-03-24T08:08:29;94721.69;;;15.19;53.68
23176;BME280;19910;42.652;23.332;2023-03-24T08:10:56;94711.78;;;15.46;53.22
23176;BME280;19910;42.652;23.332;2023-03-24T08:13:22;94703.44;;;15.74;52.68
23176;BME280;19910;42.652;23.332;2023-03-24T08:15:49;94716.75;;;15.56;52.90
23176;BME280;19910;42.652;23.332;2023-03-24T08:18:17;94722.25;;;14.93;55.23
23176;BME280;19910;42.652;23.332;2023-03-24T08:20:45;94728.94;;;15.12;53.25
23176;BME280;19910;42.652;23.332;2023-03-24T08:23:12;94727.88;;;14.69;54.22
23176;BME280;19910;42.652;23.332;2023-03-24T08:25:40;94712.31;;;14.85;54.35
23176;BME280;19910;42.652;23.332;2023-03-24T08:28:06;94715.59;;;14.75;54.40
23176;BME280;19910;42.652;23.332;2023-03-24T08:30:33;94712.47;;;15.08;54.64
23176;BME280;19910;42.652;23.332;2023-03-24T08:33:01;94715.56;;;15.07;54.80
23176;BME280;19910;42.652;23.332;2023-03-24T08:35:30;94719.47;;;14.74;55.04
23176;BME280;19910;42.652;23.332;2023-03-24T08:37:57;94705.84;;;15.25;53.90
23176;BME280;19910;42.652;23.332;2023-03-24T08:40:26;94694.78;;;15.69;53.47
23176;BME280;19910;42.652;23.332;2023-03-24T08:42:56;94697.88;;;15.51;52.45
23176;BME280;19910;42.652;23.332;2023-03-24T08:45:26;94687.47;;;15.06;53.97
23176;BME280;19910;42.652;23.332;2023-03-24T08:47:56;94687.44;;;14.71;54.50
23176;BME280;19910;42.652;23.332;2023-03-24T08:50:26;94683.34;;;15.12;55.40
23176;BME280;19910;42.652;23.332;2023-03-24T08:52:53;94675.91;;;15.63;53.46
23176;BME280;19910;42.652;23.332;2023-03-24T08:55:21;94664.06;;;15.75;53.35
23176;BME280;19910;42.652;23.332;2023-03-24T08:57:48;94669.03;;;15.89;52.34
23176;BME280;19910;42.652;23.332;2023-03-24T09:00:19;94666.13;;;16.01;52.72
23176;BME280;19910;42.652;23.332;2023-03-24T09:02:47;94665.94;;;15.90;52.43
23176;BME280;19910;42.652;23.332;2023-03-24T09:05:15;94666.38;;;15.38;53.53
23176;BME280;19910;42.652;23.332;2023-03-24T09:07:43;94659.56;;;15.83;52.31
23176;BME280;19910;42.652;23.332;2023-03-24T09:10:11;94648.91;;;15.97;51.69
23176;BME280;19910;42.652;23.332;2023-03-24T09:12:38;94653.63;;;15.61;52.46
23176;BME280;19910;42.652;23.332;2023-03-24T09:15:07;94638.41;;;15.80;51.77
23176;BME280;19910;42.652;23.332;2023-03-24T09:17:36;94638.13;;;16.27;52.04
23176;BME280;19910;42.652;23.332;2023-03-24T09:20:05;94638.25;;;17.02;50.12
23176;BME280;19910;42.652;23.332;2023-03-24T09:22:36;94630.88;;;16.80;49.57
23176;BME280;19910;42.652;23.332;2023-03-24T09:25:03;94635.94;;;16.78;49.65
23176;BME280;19910;42.652;23.332;2023-03-24T09:27:30;94630.25;;;16.90;49.32
23176;BME280;19910;42.652;23.332;2023-03-24T09:29:57;94625.00;;;17.04;49.43
23176;BME280;19910;42.652;23.332;2023-03-24T09:32:24;94623.19;;;16.89;48.67
23176;BME280;19910;42.652;23.332;2023-03-24T09:34:52;94630.25;;;16.90;48.47
23176;BME280;19910;42.652;23.332;2023-03-24T09:37:19;94625.81;;;16.82;49.33
23176;BME280;19910;42.652;23.332;2023-03-24T09:39:45;94621.97;;;17.13;49.28
23176;BME280;19910;42.652;23.332;2023-03-24T09:42:19;94610.97;;;17.10;48.47
23176;BME280;19910;42.652;23.332;2023-03-24T09:44:51;94604.09;;;17.49;47.14
23176;BME280;19910;42.652;23.332;2023-03-24T09:47:27;94608.78;;;17.79;47.27
23176;BME280;19910;42.652;23.332;2023-03-24T09:50:01;94608.06;;;17.25;47.42
23176;BME280;19910;42.652;23.332;2023-03-24T09:52:32;94600.53;;;17.45;48.00
23176;BME280;19910;42.652;23.332;2023-03-24T09:55:00;94595.50;;;17.81;46.82
23176;BME280;19910;42.652;23.332;2023-03-24T09:57:33;94593.19;;;17.83;46.16
23176;BME280;19910;42.652;23.332;2023-03-24T10:00:08;94589.09;;;17.69;46.31
23176;BME280;19910;42.652;23.332;2023-03-24T10:02:41;94584.41;;;17.70;46.77
23176;BME280;19910;42.652;23.332;2023-03-24T10:05:13;94582.88;;;17.72;46.81
23176;BME280;19910;42.652;23.332;2023-03-24T10:07:46;94578.53;;;18.05;46.21
23176;BME280;19910;42.652;23.332;2023-03-24T10:10:23;94579.47;;;17.83;46.80
23176;BME280;19910;42.652;23.332;2023-03-24T10:12:57;94583.91;;;17.31;46.90
23176;BME280;19910;42.652;23.332;2023-03-24T10:15:31;94576.28;;;17.47;46.60
23176;BME280;19910;42.652;23.332;2023-03-24T10:18:14;94582.47;;;18.04;45.55
23176;BME280;19910;42.652;23.332;2023-03-24T10:20:51;94573.03;;;18.45;45.06
23176;BME280;19910;42.652;23.332;2023-03-24T10:23:24;94565.88;;;18.78;44.76
23176;BME280;19910;42.652;23.332;2023-03-24T10:26:02;94567.03;;;18.29;44.91
23176;BME280;19910;42.652;23.332;2023-03-24T10:28:34;94570.13;;;18.24;45.78
23176;BME280;19910;42.652;23.332;2023-03-24T10:31:09;94578.25;;;17.77;46.56
23176;BME280;19910;42.652;23.332;2023-03-24T10:33:39;94567.34;;;17.84;46.53
23176;BME280;19910;42.652;23.332;2023-03-24T10:36:10;94562.97;;;18.13;46.05
23176;BME280;19910;42.652;23.332;2023-03-24T10:38:39;94570.66;;;18.40;45.05
23176;BME280;19910;42.652;23.332;2023-03-24T10:41:06;94557.81;;;18.52;44.85
23176;BME280;19910;42.652;23.332;2023-03-24T10:43:38;94555.91;;;19.10;43.71
23176;BME280;19910;42.652;23.332;2023-03-24T10:46:05;94553.97;;;19.14;42.93
23176;BME280;19910;42.652;23.332;2023-03-24T10:48:40;94556.78;;;18.67;43.70
23176;BME280;19910;42.652;23.332;2023-03-24T10:51:13;94564.16;;;18.15;44.62
23176;BME280;19910;42.652;23.332;2023-03-24T10:53:40;94559.56;;;18.26;44.46
23176;BME280;19910;42.652;23.332;2023-03-24T10:56:11;94547.56;;;18.41;44.09
23176;BME280;19910;42.652;23.332;2023-03-24T10:58:41;94538.50;;;18.85;43.27
23176;BME280;19910;42.652;23.332;2023-03-24T11:01:22;94538.44;;;18.78;42.66
23176;BME280;19910;42.652;23.332;2023-03-24T11:03:50;94533.00;;;18.37;42.43
23176;BME280;19910;42.652;23.332;2023-03-24T11:06:20;94543.28;;;19.02;42.63
23176;BME280;19910;42.652;23.332;2023-03-24T11:08:47;94541.63;;;18.87;41.66
23176;BME280;19910;42.652;23.332;2023-03-24T11:11:33;94532.00;;;19.14;41.55
23176;BME280;19910;42.652;23.332;2023-03-24T11:14:02;94539.56;;;18.26;43.24
23176;BME280;19910;42.652;23.332;2023-03-24T11:16:31;94533.84;;;18.45;40.19
23176;BME280;19910;42.652;23.332;2023-03-24T11:18:59;94521.78;;;18.53;39.03
23176;BME280;19910;42.652;23.332;2023-03-24T11:21:29;94528.56;;;18.22;36.76
23176;BME280;19910;42.652;23.332;2023-03-24T11:23:58;94516.84;;;18.25;38.82
23176;BME280;19910;42.652;23.332;2023-03-24T11:26:29;94510.09;;;18.60;38.98
23176;BME280;19910;42.652;23.332;2023-03-24T11:28:58;94504.78;;;18.88;38.41
23176;BME280;19910;42.652;23.332;2023-03-24T11:31:27;94503.97;;;18.80;38.34
23176;BME280;19910;42.652;23.332;2023-03-24T11:33:57;94509.94;;;18.42;38.79
23176;BME280;19910;42.652;23.332;2023-03-24T11:36:46;94492.91;;;18.73;38.51
23176;BME280;19910;42.652;23.332;2023-03-24T11:39:19;94500.00;;;18.71;36.17
23176;BME280;19910;42.652;23.332;2023-03-24T11:41:57;94497.16;;;19.26;35.58
23176;BME280;19910;42.652;23.332;2023-03-24T11:44:25;94490.06;;;19.28;35.87
23176;BME280;19910;42.652;23.332;2023-03-24T11:46:55;94482.00;;;19.67;36.74
23176;BME280;19910;42.652;23.332;2023-03-24T11:49:26;94480.88;;;19.93;36.98
23176;BME280;19910;42.652;23.332;2023-03-24T11:51:56;94485.16;;;19.83;35.21
23176;BME280;19910;42.652;23.332;2023-03-24T11:54:27;94480.69;;;19.33;36.12
23176;BME280;19910;42.652;23.332;2023-03-24T11:56:57;94474.44;;;19.39;36.21
23176;BME280;19910;42.652;23.332;2023-03-24T11:59:32;94466.50;;;19.20;36.50
23176;BME280;19910;42.652;23.332;2023-03-24T12:02:11;94471.69;;;19.36;36.50
23176;BME280;19910;42.652;23.332;2023-03-24T12:04:55;94464.56;;;19.28;37.00
23176;BME280;19910;42.652;23.332;2023-03-24T12:10:54;94460.41;;;19.62;37.52
23176;BME280;19910;42.652;23.332;2023-03-24T12:13:32;94452.97;;;19.80;36.48
23176;BME280;19910;42.652;23.332;2023-03-24T12:16:20;94452.59;;;19.96;35.61
23176;BME280;19910;42.652;23.332;2023-03-24T12:21:46;94441.59;;;20.32;34.87
23176;BME280;19910;42.652;23.332;2023-03-24T12:24:23;94429.81;;;20.38;34.67
23176;BME280;19910;42.652;23.332;2023-03-24T12:26:57;94431.41;;;20.50;35.14
23176;BME280;19910;42.652;23.332;2023-03-24T12:29:48;94419.53;;;20.78;34.98
23176;BME280;19910;42.652;23.332;2023-03-24T12:32:27;94423.78;;;21.04;34.93
23176;BME280;19910;42.652;23.332;2023-03-24T12:35:24;94414.28;;;21.22;34.63
23176;BME280;19910;42.652;23.332;2023-03-24T12:38:08;94405.22;;;21.25;34.33
23176;BME280;19910;42.652;23.332;2023-03-24T12:41:02;94397.22;;;21.49;33.64
23176;BME280;19910;42.652;23.332;2023-03-24T12:43:41;94401.72;;;21.07;33.59
23176;BME280;19910;42.652;23.332;2023-03-24T12:46:24;94401.94;;;20.36;34.57
23176;BME280;19910;42.652;23.332;2023-03-24T12:49:11;94380.13;;;20.95;34.01
23176;BME280;19910;42.652;23.332;2023-03-24T12:51:49;94391.66;;;20.54;34.94
23176;BME280;19910;42.652;23.332;2023-03-24T12:54:28;94388.00;;;21.00;34.83
23176;BME280;19910;42.652;23.332;2023-03-24T12:57:04;94378.56;;;20.94;34.19
23176;BME280;19910;42.652;23.332;2023-03-24T12:59:38;94369.00;;;21.23;33.62
23176;BME280;19910;42.652;23.332;2023-03-24T13:04:43;94380.03;;;21.20;32.52
23176;BME280;19910;42.652;23.332;2023-03-24T13:07:16;94376.13;;;21.17;31.87
23176;BME280;19910;42.652;23.332;2023-03-24T13:09:46;94365.88;;;21.18;32.19
23176;BME280;19910;42.652;23.332;2023-03-24T13:12:20;94373.19;;;20.58;32.26
23176;BME280;19910;42.652;23.332;2023-03-24T13:14:54;94367.28;;;20.64;32.95
23176;BME280;19910;42.652;23.332;2023-03-24T13:17:27;94362.13;;;20.73;32.78
23176;BME280;19910;42.652;23.332;2023-03-24T13:19:56;94358.28;;;20.42;34.42
23176;BME280;19910;42.652;23.332;2023-03-24T13:22:24;94354.34;;;20.32;32.53
23176;BME280;19910;42.652;23.332;2023-03-24T13:24:52;94361.44;;;20.47;32.40